sensor_id;sensor_type;location;lat;lon;timestamp;pressure;altitude;pressure_sealevel;temperature;humidity
75855;BME280;64502;59.976;30.316;2023-04-03T00:01:13;102320.34;;;-1.20;74.54
75855;BME280;64502;59.976;30.316;2023-04-03T00:03:39;102331.59;;;-1.18;74.33
75855;BME280;64502;59.976;30.316;2023-04-03T00:06:07;102319.47;;;-1.21;74.32
75855;BME280;64502;59.976;30.316;2023-04-03T00:08:34;102331.53;;;-1.23;74.39
75855;BME280;64502;59.976;30.316;2023-04-03T00:11:01;102318.59;;;-1.21;74.03
75855;BME280;64502;59.976;30.316;2023-04-03T00:13:27;102316.88;;;-1.21;74.31
75855;BME280;64502;59.976;30.316;2023-04-03T00:15:53;102312.66;;;-1.17;74.86
75855;BME280;64502;59.976;30.316;2023-04-03T00:18:19;102318.69;;;-1.15;74.73
75855;BME280;64502;59.976;30.316;2023-04-03T00:20:44;102317.03;;;-1.12;74.48
75855;BME280;64502;59.976;30.316;2023-04-03T00:23:10;102317.88;;;-1.13;74.78
75855;BME280;64502;59.976;30.316;2023-04-03T00:25:36;102321.34;;;-1.12;75.01
75855;BME280;64502;59.976;30.316;2023-04-03T00:28:02;102317.91;;;-1.11;74.39
75855;BME280;64502;59.976;30.316;2023-04-03T00:30:28;102306.69;;;-1.12;74.75
75855;BME280;64502;59.976;30.316;2023-04-03T00:32:54;102322.22;;;-1.10;75.13
75855;BME280;64502;59.976;30.316;2023-04-03T00:35:21;102319.63;;;-1.12;74.51
75855;BME280;64502;59.976;30.316;2023-04-03T00:37:48;102320.47;;;-1.14;74.65
75855;BME280;64502;59.976;30.316;2023-04-03T00:40:14;102316.09;;;-1.17;74.86
75855;BME280;64502;59.976;30.316;2023-04-03T00:42:41;102323.88;;;-1.17;75.24
75855;BME280;64502;59.976;30.316;2023-04-03T00:47:36;102316.09;;;-1.15;74.92
75855;BME280;64502;59.976;30.316;2023-04-03T00:50:02;102312.69;;;-1.14;74.90
75855;BME280;64502;59.976;30.316;2023-04-03T00:52:29;102311.81;;;-1.13;75.55
75855;BME280;64502;59.976;30.316;2023-04-03T00:54:58;102323.06;;;-1.13;75.12
75855;BME280;64502;59.976;30.316;2023-04-03T00:57:26;102321.34;;;-1.12;74.19
75855;BME280;64502;59.976;30.316;2023-04-03T00:59:56;102317.00;;;-1.13;74.59
75855;BME280;64502;59.976;30.316;2023-04-03T01:02:22;102311.75;;;-1.18;74.65
75855;BME280;64502;59.976;30.316;2023-04-03T01:04:48;102309.06;;;-1.24;74.29
75855;BME280;64502;59.976;30.316;2023-04-03T01:07:22;102310.75;;;-1.26;75.44
75855;BME280;64502;59.976;30.316;2023-04-03T01:09:50;102310.78;;;-1.24;75.10
75855;BME280;64502;59.976;30.316;2023-04-03T01:12:28;102299.63;;;-1.22;75.27
75855;BME280;64502;59.976;30.316;2023-04-03T01:15:00;102312.56;;;-1.22;75.01
75855;BME280;64502;59.976;30.316;2023-04-03T01:17:38;102312.50;;;-1.25;75.33
75855;BME280;64502;59.976;30.316;2023-04-03T01:25:34;102298.72;;;-1.24;74.67
75855;BME280;64502;59.976;30.316;2023-04-03T01:28:00;102301.28;;;-1.25;75.08
75855;BME280;64502;59.976;30.316;2023-04-03T01:30:31;102296.13;;;-1.25;74.98
75855;BME280;64502;59.976;30.316;2023-04-03T01:32:57;102300.41;;;-1.26;74.38
75855;BME280;64502;59.976;30.316;2023-04-03T01:35:24;102300.44;;;-1.24;74.14
75855;BME280;64502;59.976;30.316;2023-04-03T01:37:49;102304.72;;;-1.26;74.33
75855;BME280;64502;59.976;30.316;2023-04-03T01:40:15;102297.75;;;-1.29;73.91
75855;BME280;64502;59.976;30.316;2023-04-03T01:42:41;102297.72;;;-1.32;74.17
75855;BME280;64502;59.976;30.316;2023-04-03T01:45:06;102301.16;;;-1.33;74.28
75855;BME280;64502;59.976;30.316;2023-04-03T01:47:32;102305.47;;;-1.33;73.67
75855;BME280;64502;59.976;30.316;2023-04-03T01:49:58;102303.69;;;-1.36;74.10
75855;BME280;64502;59.976;30.316;2023-04-03T01:52:23;102303.66;;;-1.38;74.58
75855;BME280;64502;59.976;30.316;2023-04-03T01:54:49;102306.25;;;-1.39;74.37
75855;BME280;64502;59.976;30.316;2023-04-03T01:57:15;102301.91;;;-1.40;74.62
75855;BME280;64502;59.976;30.316;2023-04-03T01:59:41;102301.88;;;-1.42;74.93
75855;BME280;64502;59.976;30.316;2023-04-03T02:02:06;102308.75;;;-1.44;75.15
75855;BME280;64502;59.976;30.316;2023-04-03T02:04:32;102298.34;;;-1.45;74.97
75855;BME280;64502;59.976;30.316;2023-04-03T02:06:58;102306.97;;;-1.46;74.88
75855;BME280;64502;59.976;30.316;2023-04-03T02:09:23;102298.34;;;-1.45;74.74
75855;BME280;64502;59.976;30.316;2023-04-03T02:11:49;102306.13;;;-1.47;74.74
75855;BME280;64502;59.976;30.316;2023-04-03T02:14:14;102305.19;;;-1.49;74.85
75855;BME280;64502;59.976;30.316;2023-04-03T02:16:40;102302.56;;;-1.50;74.61
75855;BME280;64502;59.976;30.316;2023-04-03T02:19:06;102300.88;;;-1.50;74.88
75855;BME280;64502;59.976;30.316;2023-04-03T02:21:31;102311.19;;;-1.51;74.76
75855;BME280;64502;59.976;30.316;2023-04-03T02:23:57;102302.53;;;-1.53;74.74
75855;BME280;64502;59.976;30.316;2023-04-03T02:26:23;102308.56;;;-1.54;74.73
75855;BME280;64502;59.976;30.316;2023-04-03T02:28:48;102298.13;;;-1.59;74.83
75855;BME280;64502;59.976;30.316;2023-04-03T02:31:14;102298.16;;;-1.58;74.92
75855;BME280;64502;59.976;30.316;2023-04-03T02:33:39;102300.75;;;-1.56;74.78
75855;BME280;64502;59.976;30.316;2023-04-03T02:36:06;102299.94;;;-1.55;74.97
75855;BME280;64502;59.976;30.316;2023-04-03T02:38:32;102300.81;;;-1.53;74.98
75855;BME280;64502;59.976;30.316;2023-04-03T02:41:03;102299.06;;;-1.54;74.86
75855;BME280;64502;59.976;30.316;2023-04-03T02:43:29;102301.66;;;-1.55;74.63
75855;BME280;64502;59.976;30.316;2023-04-03T02:45:54;102300.75;;;-1.58;74.44
75855;BME280;64502;59.976;30.316;2023-04-03T02:48:20;102303.34;;;-1.58;74.81
75855;BME280;64502;59.976;30.316;2023-04-03T02:50:46;102286.94;;;-1.58;74.93
75855;BME280;64502;59.976;30.316;2023-04-03T02:53:11;102294.66;;;-1.60;74.54
75855;BME280;64502;59.976;30.316;2023-04-03T02:55:37;102295.47;;;-1.62;74.72
75855;BME280;64502;59.976;30.316;2023-04-03T02:58:02;102289.44;;;-1.63;75.10
75855;BME280;64502;59.976;30.316;2023-04-03T03:00:28;102302.38;;;-1.63;75.15
75855;BME280;64502;59.976;30.316;2023-04-03T03:02:54;102297.22;;;-1.61;73.87
75855;BME280;64502;59.976;30.316;2023-04-03T03:05:19;102302.31;;;-1.66;74.70
75855;BME280;64502;59.976;30.316;2023-04-03T03:07:45;102315.31;;;-1.63;74.95
75855;BME280;64502;59.976;30.316;2023-04-03T03:10:10;102304.94;;;-1.64;74.38
75855;BME280;64502;59.976;30.316;2023-04-03T03:12:36;102297.22;;;-1.63;74.24
75855;BME280;64502;59.976;30.316;2023-04-03T03:15:02;102297.25;;;-1.60;74.78
75855;BME280;64502;59.976;30.316;2023-04-03T03:17:27;102297.34;;;-1.55;74.21
75855;BME280;64502;59.976;30.316;2023-04-03T03:19:53;102297.34;;;-1.53;74.00
75855;BME280;64502;59.976;30.316;2023-04-03T03:22:19;102288.72;;;-1.54;74.10
75855;BME280;64502;59.976;30.316;2023-04-03T03:24:45;102298.22;;;-1.54;74.07
75855;BME280;64502;59.976;30.316;2023-04-03T03:27:10;102299.94;;;-1.55;73.93
75855;BME280;64502;59.976;30.316;2023-04-03T03:29:37;102301.63;;;-1.57;73.66
75855;BME280;64502;59.976;30.316;2023-04-03T03:32:03;102305.88;;;-1.59;74.44
75855;BME280;64502;59.976;30.316;2023-04-03T03:34:28;102303.28;;;-1.61;74.45
75855;BME280;64502;59.976;30.316;2023-04-03T03:36:54;102298.97;;;-1.59;74.56
75855;BME280;64502;59.976;30.316;2023-04-03T03:39:20;102295.63;;;-1.54;74.74
75855;BME280;64502;59.976;30.316;2023-04-03T03:41:46;102306.06;;;-1.48;74.50
75855;BME280;64502;59.976;30.316;2023-04-03T03:44:11;102312.19;;;-1.43;74.23
75855;BME280;64502;59.976;30.316;2023-04-03T03:46:37;102298.44;;;-1.41;74.65
75855;BME280;64502;59.976;30.316;2023-04-03T03:49:02;102299.28;;;-1.42;74.04
75855;BME280;64502;59.976;30.316;2023-04-03T03:51:28;102301.91;;;-1.40;74.72
75855;BME280;64502;59.976;30.316;2023-04-03T03:53:53;102313.09;;;-1.41;74.57
75855;BME280;64502;59.976;30.316;2023-04-03T03:56:20;102304.53;;;-1.39;74.85
75855;BME280;64502;59.976;30.316;2023-04-03T03:58:45;102303.69;;;-1.36;74.93
75855;BME280;64502;59.976;30.316;2023-04-03T04:01:11;102295.13;;;-1.33;74.79
75855;BME280;64502;59.976;30.316;2023-04-03T04:03:36;102290.75;;;-1.35;74.41
75855;BME280;64502;59.976;30.316;2023-04-03T04:06:02;102297.75;;;-1.30;73.89
75855;BME280;64502;59.976;30.316;2023-04-03T04:08:28;102299.47;;;-1.29;74.74
75855;BME280;64502;59.976;30.316;2023-04-03T04:10:53;102309.03;;;-1.27;74.57
75855;BME280;64502;59.976;30.316;2023-04-03T04:13:19;102308.16;;;-1.26;73.76
75855;BME280;64502;59.976;30.316;2023-04-03T04:15:44;102304.72;;;-1.26;74.49
75855;BME280;64502;59.976;30.316;2023-04-03T04:18:10;102314.25;;;-1.24;74.44
75855;BME280;64502;59.976;30.316;2023-04-03T04:20:35;102302.97;;;-1.26;73.72
75855;BME280;64502;59.976;30.316;2023-04-03T04:23:01;102304.78;;;-1.22;74.61
75855;BME280;64502;59.976;30.316;2023-04-03T04:25:27;102296.25;;;-1.16;74.69
75855;BME280;64502;59.976;30.316;2023-04-03T04:27:52;102294.56;;;-1.14;73.75
75855;BME280;64502;59.976;30.316;2023-04-03T04:30:18;102289.38;;;-1.13;74.11
75855;BME280;64502;59.976;30.316;2023-04-03T04:32:43;102288.53;;;-1.13;74.56
75855;BME280;64502;59.976;30.316;2023-04-03T04:35:09;102291.09;;;-1.13;74.75
75855;BME280;64502;59.976;30.316;2023-04-03T04:37:34;102290.25;;;-1.14;75.16
75855;BME280;64502;59.976;30.316;2023-04-03T04:40:00;102291.16;;;-1.10;75.12
75855;BME280;64502;59.976;30.316;2023-04-03T04:42:25;102282.56;;;-1.09;75.04
75855;BME280;64502;59.976;30.316;2023-04-03T04:44:51;102292.13;;;-1.03;74.56
75855;BME280;64502;59.976;30.316;2023-04-03T04:47:17;102296.50;;;-1.01;75.14
75855;BME280;64502;59.976;30.316;2023-04-03T04:49:42;102287.91;;;-0.98;74.71
75855;BME280;64502;59.976;30.316;2023-04-03T04:52:09;102291.34;;;-0.98;74.36
75855;BME280;64502;59.976;30.316;2023-04-03T04:54:35;102287.94;;;-0.94;73.96
75855;BME280;64502;59.976;30.316;2023-04-03T04:57:00;102283.78;;;-0.84;74.56
75855;BME280;64502;59.976;30.316;2023-04-03T04:59:26;102282.13;;;-0.79;74.07
75855;BME280;64502;59.976;30.316;2023-04-03T05:01:51;102284.78;;;-0.71;73.69
75855;BME280;64502;59.976;30.316;2023-04-03T05:04:17;102290.13;;;-0.62;73.13
75855;BME280;64502;59.976;30.316;2023-04-03T05:06:42;102287.66;;;-0.51;72.64
75855;BME280;64502;59.976;30.316;2023-04-03T05:09:08;102286.91;;;-0.42;72.59
75855;BME280;64502;59.976;30.316;2023-04-03T05:11:35;102286.16;;;-0.35;71.94
75855;BME280;64502;59.976;30.316;2023-04-03T05:14:01;102290.59;;;-0.22;72.50
75855;BME280;64502;59.976;30.316;2023-04-03T05:16:26;102291.53;;;-0.18;72.51
75855;BME280;64502;59.976;30.316;2023-04-03T05:18:52;102285.53;;;-0.13;72.79
75855;BME280;64502;59.976;30.316;2023-04-03T05:21:18;102277.00;;;-0.03;72.19
75855;BME280;64502;59.976;30.316;2023-04-03T05:23:44;102294.38;;;0.05;71.62
75855;BME280;64502;59.976;30.316;2023-04-03T05:26:09;102286.63;;;0.09;71.23
75855;BME280;64502;59.976;30.316;2023-04-03T05:28:35;102287.53;;;0.11;70.67
75855;BME280;64502;59.976;30.316;2023-04-03T05:31:01;102289.28;;;0.14;70.86
75855;BME280;64502;59.976;30.316;2023-04-03T05:33:27;102287.66;;;0.22;70.73
75855;BME280;64502;59.976;30.316;2023-04-03T05:35:53;102279.88;;;0.25;71.25
75855;BME280;64502;59.976;30.316;2023-04-03T05:38:19;102282.56;;;0.33;70.11
75855;BME280;64502;59.976;30.316;2023-04-03T05:40:45;102289.47;;;0.35;70.51
75855;BME280;64502;59.976;30.316;2023-04-03T05:43:10;102287.81;;;0.43;69.97
75855;BME280;64502;59.976;30.316;2023-04-03T05:45:36;102274.84;;;0.43;69.73
75855;BME280;64502;59.976;30.316;2023-04-03T05:48:01;102279.13;;;0.40;69.98
75855;BME280;64502;59.976;30.316;2023-04-03T05:50:27;102298.13;;;0.34;70.19
75855;BME280;64502;59.976;30.316;2023-04-03T05:52:55;102298.09;;;0.31;70.68
75855;BME280;64502;59.976;30.316;2023-04-03T05:55:21;102297.06;;;0.15;70.28
75855;BME280;64502;59.976;30.316;2023-04-03T05:57:47;102297.94;;;0.14;70.64
75855;BME280;64502;59.976;30.316;2023-04-03T06:00:13;102306.56;;;0.12;70.75
75855;BME280;64502;59.976;30.316;2023-04-03T06:02:41;102292.72;;;0.13;71.04
75855;BME280;64502;59.976;30.316;2023-04-03T06:05:07;102295.34;;;0.16;71.05
75855;BME280;64502;59.976;30.316;2023-04-03T06:07:33;102302.28;;;0.18;70.30
75855;BME280;64502;59.976;30.316;2023-04-03T06:09:59;102284.13;;;0.17;70.42
75855;BME280;64502;59.976;30.316;2023-04-03T06:12:25;102291.88;;;0.14;70.25
75855;BME280;64502;59.976;30.316;2023-04-03T06:14:50;102305.72;;;0.14;70.30
75855;BME280;64502;59.976;30.316;2023-04-03T06:17:16;102297.88;;;0.08;70.03
75855;BME280;64502;59.976;30.316;2023-04-03T06:19:43;102294.44;;;0.09;70.88
75855;BME280;64502;59.976;30.316;2023-04-03T06:22:09;102298.75;;;0.09;69.80
75855;BME280;64502;59.976;30.316;2023-04-03T06:24:34;102290.03;;;0.05;70.09
75855;BME280;64502;59.976;30.316;2023-04-03T06:27:00;102296.13;;;0.07;70.46
75855;BME280;64502;59.976;30.316;2023-04-03T06:29:26;102300.50;;;0.13;71.12
75855;BME280;64502;59.976;30.316;2023-04-03T06:31:51;102290.22;;;0.20;70.55
75855;BME280;64502;59.976;30.316;2023-04-03T06:34:17;102297.97;;;0.17;69.31
75855;BME280;64502;59.976;30.316;2023-04-03T06:36:44;102291.94;;;0.21;69.68
75855;BME280;64502;59.976;30.316;2023-04-03T06:39:23;102285.03;;;0.24;70.33
75855;BME280;64502;59.976;30.316;2023-04-03T06:41:49;102285.88;;;0.21;68.76
75855;BME280;64502;59.976;30.316;2023-04-03T06:44:15;102303.16;;;0.17;69.02
75855;BME280;64502;59.976;30.316;2023-04-03T06:46:42;102297.13;;;0.20;69.58
75855;BME280;64502;59.976;30.316;2023-04-03T06:49:08;102295.28;;;0.10;68.26
75855;BME280;64502;59.976;30.316;2023-04-03T06:51:34;102297.00;;;0.09;69.69
75855;BME280;64502;59.976;30.316;2023-04-03T06:54:01;102304.78;;;0.08;69.52
75855;BME280;64502;59.976;30.316;2023-04-03T06:56:27;102311.78;;;0.15;69.99
75855;BME280;64502;59.976;30.316;2023-04-03T06:58:54;102301.53;;;0.29;69.47
75855;BME280;64502;59.976;30.316;2023-04-03T07:01:20;102306.88;;;0.44;68.85
75855;BME280;64502;59.976;30.316;2023-04-03T07:03:47;102296.56;;;0.53;67.28
75855;BME280;64502;59.976;30.316;2023-04-03T07:06:15;102298.50;;;0.77;68.79
75855;BME280;64502;59.976;30.316;2023-04-03T07:08:41;102300.41;;;1.03;68.71
75855;BME280;64502;59.976;30.316;2023-04-03T07:11:08;102291.88;;;1.22;66.78
75855;BME280;64502;59.976;30.316;2023-04-03T07:13:33;102307.63;;;1.45;66.95
75855;BME280;64502;59.976;30.316;2023-04-03T07:15:59;102298.16;;;1.61;65.77
75855;BME280;64502;59.976;30.316;2023-04-03T07:18:25;102299.06;;;1.74;64.85
75855;BME280;64502;59.976;30.316;2023-04-03T07:20:51;102299.06;;;1.75;65.33
75855;BME280;64502;59.976;30.316;2023-04-03T07:23:17;102298.22;;;1.75;65.67
75855;BME280;64502;59.976;30.316;2023-04-03T07:25:47;102308.59;;;1.70;65.52
75855;BME280;64502;59.976;30.316;2023-04-03T07:28:14;102304.25;;;1.69;66.61
75855;BME280;64502;59.976;30.316;2023-04-03T07:30:48;102309.47;;;1.69;65.50
75855;BME280;64502;59.976;30.316;2023-04-03T07:33:15;102302.53;;;1.70;66.83
75855;BME280;64502;59.976;30.316;2023-04-03T07:35:42;102299.06;;;1.74;67.33
75855;BME280;64502;59.976;30.316;2023-04-03T07:38:08;102311.19;;;1.73;67.37
75855;BME280;64502;59.976;30.316;2023-04-03T07:40:34;102306.03;;;1.84;67.62
75855;BME280;64502;59.976;30.316;2023-04-03T07:43:00;102307.78;;;1.87;67.63
75855;BME280;64502;59.976;30.316;2023-04-03T07:45:26;102310.41;;;1.88;67.41
75855;BME280;64502;59.976;30.316;2023-04-03T07:47:51;102300.00;;;1.88;68.53
75855;BME280;64502;59.976;30.316;2023-04-03T07:50:17;102307.81;;;1.96;67.81
75855;BME280;64502;59.976;30.316;2023-04-03T07:52:43;102306.09;;;1.96;66.68
75855;BME280;64502;59.976;30.316;2023-04-03T07:55:09;102309.56;;;2.02;68.11
75855;BME280;64502;59.976;30.316;2023-04-03T07:57:35;102313.94;;;2.09;68.56
75855;BME280;64502;59.976;30.316;2023-04-03T08:00:02;102315.69;;;2.16;67.43
75855;BME280;64502;59.976;30.316;2023-04-03T08:02:28;102310.47;;;2.23;67.13
75855;BME280;64502;59.976;30.316;2023-04-03T08:04:53;102303.56;;;2.27;66.50
75855;BME280;64502;59.976;30.316;2023-04-03T08:07:19;102318.28;;;2.19;66.14
75855;BME280;64502;59.976;30.316;2023-04-03T08:09:44;102316.56;;;2.13;69.05
75855;BME280;64502;59.976;30.316;2023-04-03T08:12:10;102320.00;;;2.12;66.43
75855;BME280;64502;59.976;30.316;2023-04-03T08:14:37;102332.16;;;2.10;66.36
75855;BME280;64502;59.976;30.316;2023-04-03T08:17:02;102328.66;;;2.10;66.95
75855;BME280;64502;59.976;30.316;2023-04-03T08:19:30;102324.34;;;2.15;67.76
75855;BME280;64502;59.976;30.316;2023-04-03T08:21:55;102325.22;;;2.08;67.39
75855;BME280;64502;59.976;30.316;2023-04-03T08:24:22;102331.28;;;2.11;66.43
75855;BME280;64502;59.976;30.316;2023-04-03T08:26:48;102322.59;;;2.06;66.87
75855;BME280;64502;59.976;30.316;2023-04-03T08:29:13;102326.06;;;2.00;67.27
75855;BME280;64502;59.976;30.316;2023-04-03T08:31:39;102334.72;;;2.01;66.89
75855;BME280;64502;59.976;30.316;2023-04-03T08:34:04;102324.28;;;1.92;65.33
75855;BME280;64502;59.976;30.316;2023-04-03T08:36:30;102332.09;;;1.89;67.32
75855;BME280;64502;59.976;30.316;2023-04-03T08:38:56;102338.22;;;2.00;67.09
75855;BME280;64502;59.976;30.316;2023-04-03T08:41:43;102330.44;;;2.20;68.49
75855;BME280;64502;59.976;30.316;2023-04-03T08:47:27;102327.88;;;2.44;67.65
75855;BME280;64502;59.976;30.316;2023-04-03T08:49:56;102333.97;;;2.56;65.51
75855;BME280;64502;59.976;30.316;2023-04-03T08:52:44;102322.69;;;2.55;63.58
75855;BME280;64502;59.976;30.316;2023-04-03T08:57:47;102329.59;;;2.36;64.63
75855;BME280;64502;59.976;30.316;2023-04-03T09:00:20;102336.53;;;2.28;63.28
75855;BME280;64502;59.976;30.316;2023-04-03T09:05:16;102336.53;;;2.28;65.23
75855;BME280;64502;59.976;30.316;2023-04-03T09:07:46;102336.56;;;2.39;65.68
75855;BME280;64502;59.976;30.316;2023-04-03T09:10:13;102331.34;;;2.42;66.18
75855;BME280;64502;59.976;30.316;2023-04-03T09:12:42;102346.16;;;2.57;67.15
75855;BME280;64502;59.976;30.316;2023-04-03T09:15:20;102329.63;;;2.61;65.94
75855;BME280;64502;59.976;30.316;2023-04-03T09:17:57;102335.72;;;2.69;65.97
75855;BME280;64502;59.976;30.316;2023-04-03T09:22:55;102328.78;;;3.02;66.77
75855;BME280;64502;59.976;30.316;2023-04-03T09:25:36;102329.63;;;3.11;61.36
75855;BME280;64502;59.976;30.316;2023-04-03T09:28:03;102337.44;;;3.10;67.24
75855;BME280;64502;59.976;30.316;2023-04-03T09:30:29;102326.16;;;3.17;66.54
75855;BME280;64502;59.976;30.316;2023-04-03T09:32:56;102327.00;;;3.33;65.70
75855;BME280;64502;59.976;30.316;2023-04-03T09:35:30;102331.28;;;3.46;66.04
75855;BME280;64502;59.976;30.316;2023-04-03T09:38:21;102328.66;;;3.59;64.63
75855;BME280;64502;59.976;30.316;2023-04-03T09:40:48;102323.41;;;3.69;65.13
75855;BME280;64502;59.976;30.316;2023-04-03T09:45:44;102330.28;;;3.89;64.36
75855;BME280;64502;59.976;30.316;2023-04-03T09:50:55;102331.94;;;4.07;62.33
75855;BME280;64502;59.976;30.316;2023-04-03T09:55:52;102334.63;;;3.93;62.99
75855;BME280;64502;59.976;30.316;2023-04-03T09:58:30;102332.00;;;3.96;59.24
75855;BME280;64502;59.976;30.316;2023-04-03T10:00:58;102331.13;;;3.98;61.17
75855;BME280;64502;59.976;30.316;2023-04-03T10:03:30;102331.94;;;4.00;59.31
75855;BME280;64502;59.976;30.316;2023-04-03T10:05:56;102342.38;;;4.04;62.24
75855;BME280;64502;59.976;30.316;2023-04-03T10:08:35;102324.13;;;3.97;59.43
75855;BME280;64502;59.976;30.316;2023-04-03T10:11:17;102329.38;;;3.99;58.33
75855;BME280;64502;59.976;30.316;2023-04-03T10:14:15;102329.31;;;4.05;57.63
75855;BME280;64502;59.976;30.316;2023-04-03T10:16:47;102331.06;;;4.05;58.45
75855;BME280;64502;59.976;30.316;2023-04-03T10:19:35;102335.44;;;3.98;59.17
75855;BME280;64502;59.976;30.316;2023-04-03T10:41:55;102325.78;;;4.17;60.91
75855;BME280;64502;59.976;30.316;2023-04-03T10:44:40;102323.97;;;4.25;60.70
75855;BME280;64502;59.976;30.316;2023-04-03T10:50:10;102333.19;;;4.80;59.86
75855;BME280;64502;59.976;30.316;2023-04-03T10:52:52;102320.56;;;5.23;57.89
75855;BME280;64502;59.976;30.316;2023-04-03T10:55:34;102321.31;;;5.34;56.38
75855;BME280;64502;59.976;30.316;2023-04-03T10:58:01;102319.63;;;5.29;59.02
75855;BME280;64502;59.976;30.316;2023-04-03T11:00:47;102326.66;;;5.27;56.04
75855;BME280;64502;59.976;30.316;2023-04-03T11:05:53;102318.00;;;5.22;57.41
75855;BME280;64502;59.976;30.316;2023-04-03T11:10:55;102330.34;;;5.06;58.28
75855;BME280;64502;59.976;30.316;2023-04-03T11:13:43;102325.16;;;5.01;56.26
75855;BME280;64502;59.976;30.316;2023-04-03T11:16:17;102327.84;;;4.90;58.89
75855;BME280;64502;59.976;30.316;2023-04-03T11:19:00;102328.75;;;4.91;56.22
75855;BME280;64502;59.976;30.316;2023-04-03T11:21:51;102334.13;;;4.73;59.41
75855;BME280;64502;59.976;30.316;2023-04-03T11:24:26;102327.28;;;4.55;58.52
75855;BME280;64502;59.976;30.316;2023-04-03T11:26:54;102340.47;;;4.38;60.65
75855;BME280;64502;59.976;30.316;2023-04-03T11:29:27;102328.38;;;4.21;59.96
75855;BME280;64502;59.976;30.316;2023-04-03T11:36:58;102334.69;;;3.76;62.72
75855;BME280;64502;59.976;30.316;2023-04-03T11:39:35;102337.34;;;3.64;59.92
75855;BME280;64502;59.976;30.316;2023-04-03T11:44:47;102346.09;;;3.35;63.70
75855;BME280;64502;59.976;30.316;2023-04-03T11:47:49;102343.50;;;3.32;63.16
75855;BME280;64502;59.976;30.316;2023-04-03T11:53:01;102345.28;;;3.15;63.89
75855;BME280;64502;59.976;30.316;2023-04-03T12:00:45;102336.56;;;3.19;62.34
75855;BME280;64502;59.976;30.316;2023-04-03T12:18:53;102336.63;;;2.79;64.14
75855;BME280;64502;59.976;30.316;2023-04-03T12:29:39;102340.97;;;2.67;64.17
75855;BME280;64502;59.976;30.316;2023-04-03T12:40:35;102343.53;;;2.52;63.73
75855;BME280;64502;59.976;30.316;2023-04-03T12:46:12;102343.50;;;2.44;64.68
75855;BME280;64502;59.976;30.316;2023-04-03T12:48:50;102342.63;;;2.42;65.62
75855;BME280;64502;59.976;30.316;2023-04-03T12:53:58;102340.00;;;2.32;64.76
75855;BME280;64502;59.976;30.316;2023-04-03T12:56:30;102347.81;;;2.29;64.73
75855;BME280;64502;59.976;30.316;2023-04-03T12:59:20;102340.00;;;2.22;64.30
75855;BME280;64502;59.976;30.316;2023-04-03T13:02:01;102353.88;;;2.17;64.69
75855;BME280;64502;59.976;30.316;2023-04-03T13:04:28;102343.44;;;2.09;66.07
75855;BME280;64502;59.976;30.316;2023-04-03T13:06:55;102347.75;;;2.07;66.20
75855;BME280;64502;59.976;30.316;2023-04-03T13:09:28;102340.84;;;2.08;65.73
75855;BME280;64502;59.976;30.316;2023-04-03T13:12:03;102353.84;;;2.06;64.94
75855;BME280;64502;59.976;30.316;2023-04-03T13:14:35;102353.84;;;2.03;66.61
75855;BME280;64502;59.976;30.316;2023-04-03T13:17:14;102340.84;;;2.05;66.16
75855;BME280;64502;59.976;30.316;2023-04-03T13:19:41;102357.28;;;2.00;66.68
75855;BME280;64502;59.976;30.316;2023-04-03T13:24:58;102349.53;;;2.11;66.50
75855;BME280;64502;59.976;30.316;2023-04-03T13:27:25;102353.00;;;2.10;66.94
75855;BME280;64502;59.976;30.316;2023-04-03T13:29:57;102354.75;;;2.13;65.97
75855;BME280;64502;59.976;30.316;2023-04-03T13:32:25;102351.25;;;2.15;67.07
75855;BME280;64502;59.976;30.316;2023-04-03T13:34:52;102344.28;;;2.10;66.68
75855;BME280;64502;59.976;30.316;2023-04-03T13:37:25;102339.09;;;2.05;66.00
75855;BME280;64502;59.976;30.316;2023-04-03T13:42:36;102364.22;;;1.94;67.33
75855;BME280;64502;59.976;30.316;2023-04-03T13:45:31;102354.66;;;1.96;67.15
75855;BME280;64502;59.976;30.316;2023-04-03T13:48:15;102346.00;;;1.98;66.82
75855;BME280;64502;59.976;30.316;2023-04-03T13:50:53;102346.00;;;1.95;66.73
75855;BME280;64502;59.976;30.316;2023-04-03T13:53:20;102349.47;;;1.94;68.64
75855;BME280;64502;59.976;30.316;2023-04-03T13:55:59;102348.59;;;1.94;67.54
75855;BME280;64502;59.976;30.316;2023-04-03T13:58:29;102352.06;;;1.94;67.55
75855;BME280;64502;59.976;30.316;2023-04-03T14:00:56;102352.94;;;1.95;68.97
75855;BME280;64502;59.976;30.316;2023-04-03T14:03:31;102346.00;;;2.02;68.91
75855;BME280;64502;59.976;30.316;2023-04-03T14:05:58;102342.53;;;2.01;68.18
75855;BME280;64502;59.976;30.316;2023-04-03T14:08:25;102344.28;;;2.00;68.15
75855;BME280;64502;59.976;30.316;2023-04-03T14:10:53;102338.22;;;2.06;69.29
75855;BME280;64502;59.976;30.316;2023-04-03T14:13:19;102349.50;;;2.10;67.50
75855;BME280;64502;59.976;30.316;2023-04-03T14:15:46;102348.63;;;2.06;67.68
75855;BME280;64502;59.976;30.316;2023-04-03T14:18:15;102347.75;;;2.04;67.72
75855;BME280;64502;59.976;30.316;2023-04-03T14:20:42;102343.41;;;2.06;68.21
75855;BME280;64502;59.976;30.316;2023-04-03T14:23:07;102347.78;;;2.06;68.09
75855;BME280;64502;59.976;30.316;2023-04-03T14:25:33;102340.81;;;2.00;67.44
75855;BME280;64502;59.976;30.316;2023-04-03T14:28:00;102336.44;;;1.94;67.48
75855;BME280;64502;59.976;30.316;2023-04-03T14:30:31;102332.09;;;1.89;67.67
75855;BME280;64502;59.976;30.316;2023-04-03T14:32:57;102328.59;;;1.84;67.47
75855;BME280;64502;59.976;30.316;2023-04-03T14:35:24;102332.03;;;1.80;67.44
75855;BME280;64502;59.976;30.316;2023-04-03T14:37:51;102336.41;;;1.84;68.29
75855;BME280;64502;59.976;30.316;2023-04-03T14:40:22;102331.22;;;1.88;68.22
75855;BME280;64502;59.976;30.316;2023-04-03T14:42:48;102340.75;;;1.89;68.17
75855;BME280;64502;59.976;30.316;2023-04-03T14:45:15;102326.88;;;1.86;67.80